Time;durP1;ratioP1;P1;durP2;ratioP2;P2;SDS_P1;SDS_P2;PMS_P1;PMS_P2;Temp;Humidity;BMP_temperature;BMP_pressure;BME280_temperature;BME280_humidity;BME280_pressure;Samples;Min_cycle;Max_cycle;Signal;HPM_P1;HPM_P2
2022/06/08 00:02:22;;;;;;;17.00;8.10;;;;;;;16.66;88.24;99937.44;107016;1268;22965;-79
2022/06/08 00:04:53;;;;;;;19.40;9.90;;;;;;;16.65;88.52;99938.54;107013;1268;22709;-78
2022/06/08 00:07:25;;;;;;;20.60;9.70;;;;;;;16.65;88.49;99933.05;107000;1268;24972;-78
2022/06/08 00:09:56;;;;;;;17.60;8.20;;;;;;;16.63;88.57;99933.88;106981;1268;23061;-78
2022/06/08 00:12:28;;;;;;;22.00;10.90;;;;;;;16.65;88.56;99929.92;107077;1268;22556;-77
2022/06/08 00:15:00;;;;;;;22.80;10.90;;;;;;;16.65;88.64;99929.11;107055;1268;22682;-78
2022/06/08 00:17:31;;;;;;;24.80;10.60;;;;;;;16.64;88.57;99927.88;107039;1268;22547;-78
2022/06/08 00:20:04;;;;;;;23.90;12.40;;;;;;;16.63;88.76;99929.59;106965;1267;26299;-78
2022/06/08 00:22:35;;;;;;;20.70;10.60;;;;;;;16.62;88.86;99926.47;107028;1267;22607;-77
2022/06/08 00:25:09;;;;;;;23.60;12.40;;;;;;;16.62;88.76;99925.55;107003;1267;23880;-77
2022/06/08 00:27:40;;;;;;;23.50;12.10;;;;;;;16.60;89.01;99921.11;107014;1268;22520;-78
2022/06/08 00:30:13;;;;;;;24.10;13.70;;;;;;;16.60;89.08;99920.50;106972;1267;25443;-77
2022/06/08 00:32:44;;;;;;;23.70;11.70;;;;;;;16.59;88.90;99922.10;107098;1268;23628;-76
2022/06/08 00:35:16;;;;;;;25.70;13.50;;;;;;;16.58;89.00;99921.75;106952;1268;25251;-79
2022/06/08 00:37:49;;;;;;;25.00;12.90;;;;;;;16.59;89.12;99917.19;106986;1268;24396;-78
2022/06/08 00:40:24;;;;;;;25.50;13.60;;;;;;;16.60;89.24;99907.54;106965;1267;22579;-78
2022/06/08 00:42:55;;;;;;;24.20;14.10;;;;;;;16.61;89.07;99909.22;107415;1267;22525;-78
2022/06/08 00:45:27;;;;;;;26.00;14.60;;;;;;;16.61;89.21;99905.42;107064;1268;22562;-78
2022/06/08 00:48:01;;;;;;;24.50;13.80;;;;;;;16.60;89.23;99904.92;106934;1268;22595;-77
2022/06/08 00:50:39;;;;;;;27.90;14.80;;;;;;;16.59;89.36;99901.77;106917;1268;24338;-77
2022/06/08 00:53:14;;;;;;;27.50;15.00;;;;;;;16.57;89.41;99902.40;107110;1268;25340;-78
2022/06/08 00:55:47;;;;;;;26.50;15.10;;;;;;;16.56;89.46;99898.55;106976;1267;23358;-78
2022/06/08 00:58:24;;;;;;;25.50;13.80;;;;;;;16.57;89.40;99899.64;107130;1267;25361;-79
2022/06/08 01:00:58;;;;;;;29.00;14.40;;;;;;;16.56;89.57;99901.58;107025;1267;25987;-78
2022/06/08 01:03:30;;;;;;;30.90;16.50;;;;;;;16.56;89.45;99893.84;107761;1267;22632;-78
2022/06/08 01:06:05;;;;;;;28.70;15.10;;;;;;;16.56;89.47;99893.79;107134;1267;22526;-78
2022/06/08 01:08:41;;;;;;;25.00;13.90;;;;;;;16.57;89.47;99891.42;107053;1267;25250;-77
2022/06/08 01:11:19;;;;;;;29.40;15.50;;;;;;;16.57;89.61;99895.69;107084;1267;24258;-78
2022/06/08 01:13:51;;;;;;;28.70;15.70;;;;;;;16.55;89.61;99895.44;107129;1267;22617;-78
2022/06/08 01:16:23;;;;;;;27.80;14.70;;;;;;;16.54;89.69;99895.40;107075;1267;22866;-78
2022/06/08 01:18:55;;;;;;;27.10;14.00;;;;;;;16.52;89.69;99894.30;106916;1268;22532;-78
2022/06/08 01:21:48;;;;;;;25.20;12.50;;;;;;;16.52;89.82;99894.14;107017;1267;22550;-79
2022/06/08 01:24:20;;;;;;;25.30;13.30;;;;;;;16.53;89.60;99892.50;106986;1267;22571;-78
2022/06/08 01:27:03;;;;;;;24.10;12.30;;;;;;;16.52;89.67;99888.61;106945;1267;22546;-78
2022/06/08 01:29:41;;;;;;;27.10;13.00;;;;;;;16.51;89.66;99884.52;106896;1268;25383;-78
2022/06/08 01:32:19;;;;;;;26.70;13.00;;;;;;;16.50;89.50;99887.15;107041;1267;25360;-78
2022/06/08 01:35:03;;;;;;;23.00;12.50;;;;;;;16.49;89.71;99882.80;106935;1267;22620;-77
2022/06/08 01:37:47;;;;;;;23.00;12.50;;;;;;;16.48;89.68;99881.81;106945;1267;22557;-78
2022/06/08 01:40:55;;;;;;;27.60;13.40;;;;;;;16.47;89.62;99877.05;106961;1268;23033;-77
2022/06/08 01:43:37;;;;;;;21.30;11.50;;;;;;;16.47;89.66;99877.46;107001;1267;25369;-78
2022/06/08 01:46:21;;;;;;;24.90;11.60;;;;;;;16.46;89.45;99878.19;106950;1267;22554;-78
2022/06/08 01:49:14;;;;;;;21.80;11.20;;;;;;;16.45;89.64;99877.52;106920;1267;24237;-78
2022/06/08 01:52:00;;;;;;;23.60;12.70;;;;;;;16.44;89.55;99870.21;106880;1268;24278;-78
2022/06/08 01:54:44;;;;;;;24.90;13.30;;;;;;;16.43;89.62;99870.90;107021;1267;25373;-78
2022/06/08 01:57:29;;;;;;;25.30;12.50;;;;;;;16.42;89.45;99871.17;106930;1268;22533;-78
2022/06/08 02:00:06;;;;;;;25.00;12.20;;;;;;;16.42;89.48;99870.04;106998;1267;22572;-77
2022/06/08 02:02:49;;;;;;;26.30;12.40;;;;;;;16.40;89.54;99872.64;107490;1267;24170;-77
2022/06/08 02:05:30;;;;;;;25.80;11.60;;;;;;;16.38;89.39;99872.84;107025;1267;25363;-77
2022/06/08 02:08:11;;;;;;;22.00;10.80;;;;;;;16.37;89.55;99870.75;107032;1267;25302;-79
2022/06/08 02:10:51;;;;;;;21.70;11.80;;;;;;;16.35;89.50;99865.59;106980;1267;22567;-78
2022/06/08 02:13:29;;;;;;;22.00;11.50;;;;;;;16.34;89.54;99868.23;107003;1267;22485;-77
2022/06/08 02:16:07;;;;;;;20.10;10.60;;;;;;;16.32;89.54;99867.52;106911;1268;23348;-79
2022/06/08 02:18:45;;;;;;;23.30;11.30;;;;;;;16.30;89.50;99866.38;106830;1268;22608;-78
2022/06/08 02:21:22;;;;;;;20.50;10.30;;;;;;;16.27;89.42;99868.55;106956;1267;22585;-77
2022/06/08 02:23:57;;;;;;;21.70;10.70;;;;;;;16.24;89.45;99867.21;106928;1268;22553;-78
2022/06/08 02:26:34;;;;;;;21.20;9.90;;;;;;;16.22;89.49;99861.50;106919;1268;22524;-77
2022/06/08 02:29:11;;;;;;;24.00;12.00;;;;;;;16.20;89.45;99859.05;106915;1267;27407;-78
2022/06/08 02:31:50;;;;;;;21.10;10.50;;;;;;;16.17;89.41;99855.08;106922;1267;23211;-79
2022/06/08 02:34:31;;;;;;;22.00;11.70;;;;;;;16.16;89.34;99854.23;106971;1267;22544;-78
2022/06/08 02:37:13;;;;;;;21.90;9.90;;;;;;;16.13;89.34;99854.46;106947;1267;25267;-78
2022/06/08 02:39:49;;;;;;;19.00;10.40;;;;;;;16.11;89.51;99855.09;106917;1267;22537;-77
2022/06/08 02:42:25;;;;;;;20.80;9.70;;;;;;;16.10;89.57;99853.09;106962;1267;22576;-79
2022/06/08 02:45:00;;;;;;;18.60;8.40;;;;;;;16.09;89.58;99853.38;106946;1267;27652;-80
2022/06/08 02:47:35;;;;;;;17.70;7.80;;;;;;;16.07;89.65;99859.33;107156;1267;24288;-77
2022/06/08 02:50:10;;;;;;;15.00;7.10;;;;;;;16.04;89.75;99857.77;106882;1267;23081;-77
2022/06/08 02:52:44;;;;;;;15.60;6.80;;;;;;;16.01;89.71;99860.65;107006;1267;25290;-78
2022/06/08 02:55:22;;;;;;;14.50;6.50;;;;;;;15.93;89.79;99866.77;107300;1267;22572;-78
2022/06/08 02:58:00;;;;;;;15.30;6.20;;;;;;;15.85;89.79;99870.89;108855;1267;22536;-78
2022/06/08 03:00:37;;;;;;;15.10;6.60;;;;;;;15.83;90.08;99868.05;106856;1267;22881;-78
2022/06/08 03:03:13;;;;;;;13.40;6.60;;;;;;;15.83;90.16;99867.83;106991;1267;25594;-77
2022/06/08 03:05:50;;;;;;;13.80;6.30;;;;;;;15.84;90.11;99868.18;106978;1268;22602;-77
2022/06/08 03:08:25;;;;;;;14.40;6.50;;;;;;;15.83;89.96;99868.95;106973;1267;24203;-78
2022/06/08 03:10:59;;;;;;;13.70;6.20;;;;;;;15.82;90.04;99871.64;107073;1267;24286;-77
2022/06/08 03:13:34;;;;;;;13.80;5.80;;;;;;;15.84;90.11;99870.54;107083;1267;22549;-78
2022/06/08 03:16:08;;;;;;;16.10;6.70;;;;;;;15.85;89.88;99866.64;107042;1267;22533;-78
2022/06/08 03:18:40;;;;;;;19.20;8.30;;;;;;;15.87;90.02;99867.24;106944;1267;25296;-78
2022/06/08 03:21:12;;;;;;;16.30;7.00;;;;;;;15.86;90.06;99870.27;107034;1267;25254;-78
2022/06/08 03:23:44;;;;;;;16.80;7.20;;;;;;;15.86;90.02;99872.00;107004;1268;22605;-79
2022/06/08 03:26:17;;;;;;;16.60;6.80;;;;;;;15.86;90.00;99872.52;107043;1267;23994;-78
2022/06/08 03:28:48;;;;;;;16.90;8.20;;;;;;;15.86;90.12;99878.25;106903;1267;22524;-78
2022/06/08 03:31:19;;;;;;;17.30;8.30;;;;;;;15.85;90.18;99877.48;106926;1267;22558;-78
2022/06/08 03:33:53;;;;;;;16.40;8.20;;;;;;;15.86;90.21;99877.94;106894;1267;22550;-78
2022/06/08 03:36:24;;;;;;;17.80;8.60;;;;;;;15.86;90.21;99881.52;107083;1267;24376;-79
2022/06/08 03:38:55;;;;;;;19.60;9.20;;;;;;;15.87;90.33;99875.13;106978;1267;25290;-79
2022/06/08 03:41:26;;;;;;;18.70;8.60;;;;;;;15.88;90.40;99875.84;106944;1266;22550;-77
2022/06/08 03:43:59;;;;;;;19.90;8.30;;;;;;;15.90;90.53;99878.58;106988;1267;23175;-77
2022/06/08 03:46:34;;;;;;;22.10;10.40;;;;;;;15.91;90.48;99875.90;107028;1268;22582;-81
2022/06/08 03:49:08;;;;;;;22.90;11.70;;;;;;;15.93;90.68;99879.81;107895;1267;22759;-81
2022/06/08 03:51:42;;;;;;;22.60;10.40;;;;;;;15.95;90.74;99877.55;107825;1268;22733;-81
2022/06/08 03:54:17;;;;;;;23.10;10.10;;;;;;;15.98;91.07;99885.51;107457;1267;22528;-80
2022/06/08 03:56:55;;;;;;;22.10;11.40;;;;;;;16.01;91.16;99881.60;107439;1267;22527;-79
2022/06/08 03:59:27;;;;;;;26.20;11.80;;;;;;;16.03;91.22;99883.42;107435;1267;22547;-79
2022/06/08 04:01:58;;;;;;;22.80;11.90;;;;;;;16.06;91.38;99891.03;107371;1267;25596;-80
2022/06/08 04:04:30;;;;;;;23.80;12.60;;;;;;;16.08;91.42;99890.80;107802;1267;26421;-80
2022/06/08 04:07:02;;;;;;;23.20;12.80;;;;;;;16.11;91.66;99891.02;107829;1267;25821;-81
2022/06/08 04:09:33;;;;;;;26.00;13.60;;;;;;;16.15;91.73;99890.59;107821;1268;23719;-81
2022/06/08 04:12:05;;;;;;;27.50;14.30;;;;;;;16.18;91.78;99888.30;107892;1267;22538;-81
2022/06/08 04:14:38;;;;;;;29.10;14.90;;;;;;;16.21;91.94;99884.80;107815;1267;25367;-81
2022/06/08 04:17:12;;;;;;;26.30;13.10;;;;;;;16.24;92.08;99883.17;107720;1267;23117;-80
2022/06/08 04:19:44;;;;;;;26.20;15.20;;;;;;;16.29;92.26;99882.20;107974;1267;24288;-80
2022/06/08 04:22:16;;;;;;;24.20;14.10;;;;;;;16.33;92.29;99881.40;107933;1266;22668;-82
2022/06/08 04:24:49;;;;;;;29.90;14.40;;;;;;;16.37;92.44;99882.28;107986;1267;25242;-81
2022/06/08 04:27:21;;;;;;;25.00;13.30;;;;;;;16.40;92.45;99877.02;107659;1267;24250;-78
2022/06/08 04:29:53;;;;;;;26.10;12.60;;;;;;;16.43;92.56;99876.38;107859;1267;24397;-81
2022/06/08 04:32:24;;;;;;;22.20;12.50;;;;;;;16.46;92.63;99871.53;108083;1267;22768;-81
2022/06/08 04:34:57;;;;;;;26.60;13.40;;;;;;;16.49;92.76;99872.44;107980;1267;24270;-80
2022/06/08 04:37:28;;;;;;;29.20;14.90;;;;;;;16.51;92.58;99868.52;107879;1267;23159;-81
2022/06/08 04:39:59;;;;;;;26.70;14.20;;;;;;;16.53;92.91;99868.46;107893;1267;22536;-80
2022/06/08 04:42:31;;;;;;;27.30;14.80;;;;;;;16.57;93.13;99872.21;107773;1268;22597;-80
2022/06/08 04:45:03;;;;;;;27.60;15.30;;;;;;;16.61;93.17;99875.96;107827;1268;23992;-80
2022/06/08 04:47:35;;;;;;;28.70;15.20;;;;;;;16.65;93.22;99873.66;107892;1267;22702;-79
2022/06/08 04:50:08;;;;;;;26.80;14.80;;;;;;;16.70;93.21;99875.74;107447;1267;22528;-80
2022/06/08 04:52:40;;;;;;;28.80;16.20;;;;;;;16.75;93.24;99876.46;107515;1267;24227;-79
2022/06/08 04:55:15;;;;;;;26.00;15.30;;;;;;;16.78;92.96;99876.27;107490;1267;25513;-79
2022/06/08 04:57:48;;;;;;;26.70;14.30;;;;;;;16.82;93.30;99875.50;107489;1267;24367;-78
2022/06/08 05:00:23;;;;;;;28.80;15.60;;;;;;;16.87;93.20;99876.42;107142;1266;23870;-79
2022/06/08 05:02:55;;;;;;;28.70;15.70;;;;;;;16.91;93.49;99878.31;107221;1268;22575;-78
2022/06/08 05:05:29;;;;;;;26.80;16.00;;;;;;;16.92;93.20;99881.42;107200;1267;22602;-78
2022/06/08 05:08:02;;;;;;;27.10;15.40;;;;;;;16.94;93.43;99882.89;106997;1267;25337;-79
2022/06/08 05:10:35;;;;;;;28.60;16.40;;;;;;;16.97;93.06;99882.95;107171;1267;25818;-77
2022/06/08 05:13:08;;;;;;;29.80;17.10;;;;;;;17.02;93.48;99880.84;107004;1267;22591;-79
2022/06/08 05:15:42;;;;;;;25.30;14.70;;;;;;;17.06;93.38;99881.55;107131;1267;24033;-78
2022/06/08 05:18:16;;;;;;;30.80;17.90;;;;;;;17.08;93.26;99883.08;106990;1267;22614;-78
2022/06/08 05:20:51;;;;;;;28.70;16.20;;;;;;;17.13;93.16;99879.63;107177;1267;22873;-79
2022/06/08 05:23:28;;;;;;;34.30;17.10;;;;;;;17.16;93.09;99879.85;107218;1267;24011;-79
2022/06/08 05:26:02;;;;;;;28.40;15.60;;;;;;;17.17;93.04;99880.85;107174;1267;25309;-79
2022/06/08 05:28:34;;;;;;;27.80;16.20;;;;;;;17.18;92.72;99880.38;107056;1267;22593;-79
2022/06/08 05:31:06;;;;;;;26.90;14.60;;;;;;;17.21;92.87;99882.70;107155;1267;22536;-79
2022/06/08 05:33:37;;;;;;;27.80;16.30;;;;;;;17.24;93.02;99876.34;107252;1267;25940;-79
2022/06/08 05:36:10;;;;;;;26.20;15.60;;;;;;;17.31;93.25;99876.86;107302;1267;22631;-79
2022/06/08 05:38:41;;;;;;;26.20;15.00;;;;;;;17.34;92.48;99880.41;107373;1267;22721;-79
2022/06/08 05:41:12;;;;;;;28.80;15.20;;;;;;;17.37;92.54;99882.42;107271;1267;22526;-79
2022/06/08 05:43:44;;;;;;;23.60;14.20;;;;;;;17.38;92.10;99882.83;107330;1267;25372;-79
2022/06/08 05:46:17;;;;;;;26.60;14.60;;;;;;;17.36;91.74;99883.04;107198;1267;25366;-79
2022/06/08 05:48:48;;;;;;;28.70;14.60;;;;;;;17.35;91.51;99881.00;107386;1267;22640;-79
2022/06/08 05:51:20;;;;;;;25.50;15.10;;;;;;;17.35;91.68;99878.70;107267;1267;22558;-79
2022/06/08 05:53:51;;;;;;;28.70;16.50;;;;;;;17.39;92.07;99877.63;107353;1267;22616;-79
2022/06/08 05:56:23;;;;;;;27.50;14.70;;;;;;;17.43;92.33;99870.32;107230;1267;23871;-79
2022/06/08 05:58:55;;;;;;;24.10;14.30;;;;;;;17.47;91.94;99872.32;107189;1267;24269;-78
2022/06/08 06:01:27;;;;;;;26.00;15.00;;;;;;;17.50;91.30;99873.38;107073;1267;22535;-78
2022/06/08 06:03:59;;;;;;;24.40;13.40;;;;;;;17.57;91.25;99878.24;107158;1267;25371;-79
2022/06/08 06:06:31;;;;;;;25.50;14.40;;;;;;;17.61;91.42;99878.70;107288;1267;25319;-79
2022/06/08 06:09:04;;;;;;;25.00;15.40;;;;;;;17.70;91.63;99880.86;107207;1267;22684;-79
2022/06/08 06:11:36;;;;;;;22.30;13.60;;;;;;;17.78;91.23;99877.80;107186;1267;22652;-78
2022/06/08 06:14:09;;;;;;;22.70;13.60;;;;;;;17.89;91.49;99877.91;107071;1267;22529;-77
2022/06/08 06:16:41;;;;;;;24.50;14.60;;;;;;;18.02;91.47;99871.41;106836;1267;23968;-76
2022/06/08 06:19:12;;;;;;;21.70;14.00;;;;;;;18.13;90.40;99866.23;106849;1267;22676;-76
2022/06/08 06:21:43;;;;;;;23.10;11.90;;;;;;;18.17;89.52;99864.02;106821;1266;22533;-77
2022/06/08 06:24:15;;;;;;;20.70;10.80;;;;;;;18.25;89.33;99865.87;107064;1267;26305;-76
2022/06/08 06:26:47;;;;;;;19.20;10.20;;;;;;;18.35;89.32;99865.95;106875;1267;22531;-77
2022/06/08 06:29:18;;;;;;;21.80;10.80;;;;;;;18.49;89.68;99868.07;106887;1266;22537;-76
2022/06/08 06:31:51;;;;;;;20.90;10.90;;;;;;;18.53;88.08;99871.84;106925;1267;25257;-77
2022/06/08 06:34:25;;;;;;;20.20;11.70;;;;;;;18.63;89.00;99872.70;107015;1267;22526;-76
2022/06/08 06:36:59;;;;;;;18.20;9.70;;;;;;;18.73;89.16;99871.09;106884;1267;24912;-76
2022/06/08 06:39:34;;;;;;;17.70;8.20;;;;;;;18.85;87.71;99875.18;106881;1267;25474;-75
2022/06/08 06:42:14;;;;;;;19.40;7.10;;;;;;;18.94;86.71;99880.54;106871;1267;22569;-76
2022/06/08 06:44:46;;;;;;;12.50;6.10;;;;;;;18.99;85.69;99886.92;106992;1267;24715;-76
2022/06/08 06:47:17;;;;;;;11.20;5.50;;;;;;;19.02;85.65;99884.39;106899;1267;24338;-76
2022/06/08 06:49:51;;;;;;;12.80;5.00;;;;;;;19.05;84.85;99880.52;106889;1267;22522;-75
2022/06/08 06:52:23;;;;;;;13.70;6.30;;;;;;;19.11;84.76;99879.05;106938;1267;22526;-76
2022/06/08 06:54:54;;;;;;;14.00;6.40;;;;;;;19.15;84.86;99882.68;106930;1267;27498;-76
2022/06/08 06:57:26;;;;;;;14.80;6.20;;;;;;;19.22;84.67;99879.46;106833;1267;24308;-78
2022/06/08 06:59:58;;;;;;;15.00;6.60;;;;;;;19.29;84.42;99877.19;106806;1267;24895;-75
2022/06/08 07:02:29;;;;;;;15.40;7.30;;;;;;;19.33;83.25;99874.52;106836;1267;22547;-77
2022/06/08 07:05:01;;;;;;;15.90;7.20;;;;;;;19.33;83.11;99868.90;106857;1267;24336;-77
2022/06/08 07:07:33;;;;;;;13.00;6.50;;;;;;;19.36;82.61;99871.94;106803;1267;25365;-75
2022/06/08 07:10:05;;;;;;;12.60;6.20;;;;;;;19.38;82.41;99866.98;106832;1267;25296;-76
2022/06/08 07:12:36;;;;;;;16.80;6.10;;;;;;;19.41;81.70;99863.08;106621;1267;24353;-76
2022/06/08 07:15:12;;;;;;;14.30;6.10;;;;;;;19.40;80.86;99862.85;106870;1267;24291;-76
2022/06/08 07:17:43;;;;;;;12.80;6.30;;;;;;;19.40;80.41;99864.23;107069;1268;25335;-76
2022/06/08 07:20:18;;;;;;;13.70;6.60;;;;;;;19.38;80.11;99864.30;106729;1267;22698;-76
2022/06/08 07:22:51;;;;;;;15.10;7.00;;;;;;;19.41;80.90;99861.34;106978;1267;22541;-76
2022/06/08 07:25:23;;;;;;;14.30;7.00;;;;;;;19.47;80.62;99859.73;106867;1267;25367;-77
2022/06/08 07:27:54;;;;;;;14.80;7.30;;;;;;;19.51;79.99;99858.45;102935;1267;5412400;-77
2022/06/08 07:30:25;;;;;;;14.70;6.20;;;;;;;19.50;79.96;99853.15;106877;1267;22528;-76
2022/06/08 07:32:56;;;;;;;15.70;7.70;;;;;;;19.57;80.72;99859.13;106845;1267;22543;-76
2022/06/08 07:35:28;;;;;;;15.70;7.80;;;;;;;19.70;81.34;99858.17;106994;1267;22718;-75
2022/06/08 07:38:00;;;;;;;13.50;7.30;;;;;;;19.81;80.56;99858.92;106942;1267;23812;-75
2022/06/08 07:40:33;;;;;;;13.90;6.30;;;;;;;19.87;79.95;99855.31;106852;1267;22541;-75
2022/06/08 07:43:04;;;;;;;13.40;6.20;;;;;;;19.97;80.16;99854.58;106910;1267;23084;-75
2022/06/08 07:45:35;;;;;;;12.00;5.90;;;;;;;20.11;80.06;99856.31;106930;1267;25447;-75
2022/06/08 07:50:56;;;;;;;10.70;4.10;;;;;;;20.28;78.43;99855.09;106853;1267;24364;-76
2022/06/08 07:53:29;;;;;;;11.30;3.30;;;;;;;20.42;77.86;99854.35;106861;1267;22556;-77
2022/06/08 07:56:00;;;;;;;8.30;3.50;;;;;;;20.52;76.63;99852.06;106889;1267;23074;-76
2022/06/08 07:58:31;;;;;;;7.20;2.00;;;;;;;20.58;75.19;99853.65;106870;1267;22521;-76
2022/06/08 08:01:02;;;;;;;9.70;2.60;;;;;;;20.64;74.61;99852.56;106872;1267;24224;-76
2022/06/08 08:03:34;;;;;;;9.40;2.90;;;;;;;20.65;73.21;99847.42;106941;1267;22524;-76
2022/06/08 08:06:06;;;;;;;8.30;2.30;;;;;;;20.62;72.83;99841.89;106841;1268;22529;-76
2022/06/08 08:08:39;;;;;;;6.60;2.40;;;;;;;20.63;72.20;99845.45;106907;1267;22567;-76
2022/06/08 08:11:13;;;;;;;8.00;2.50;;;;;;;20.62;71.67;99845.44;106834;1267;23005;-76
2022/06/08 08:13:45;;;;;;;8.80;3.10;;;;;;;20.65;72.07;99845.36;106892;1267;22607;-77
2022/06/08 08:16:16;;;;;;;8.10;2.70;;;;;;;20.71;72.13;99840.95;106836;1267;25447;-77
2022/06/08 08:18:48;;;;;;;7.70;2.30;;;;;;;20.80;71.86;99844.86;106805;1267;25490;-76
2022/06/08 08:21:20;;;;;;;6.00;2.40;;;;;;;20.94;72.62;99839.10;106894;1266;22876;-76
2022/06/08 08:23:52;;;;;;;8.10;2.40;;;;;;;21.08;71.82;99842.05;106945;1267;22697;-76
2022/06/08 08:26:23;;;;;;;9.40;2.50;;;;;;;21.16;71.17;99844.33;107063;1267;22546;-77
2022/06/08 08:28:54;;;;;;;8.30;3.00;;;;;;;21.26;70.85;99849.52;106885;1267;22986;-76
2022/06/08 08:31:26;;;;;;;6.40;2.30;;;;;;;21.32;70.79;99845.86;106934;1267;24251;-76
2022/06/08 08:33:57;;;;;;;5.40;1.70;;;;;;;21.45;70.63;99845.45;107022;1267;22543;-77
2022/06/08 08:36:28;;;;;;;4.40;1.40;;;;;;;21.62;70.55;99843.81;106888;1267;22534;-76
2022/06/08 08:39:00;;;;;;;4.90;2.00;;;;;;;21.81;69.62;99848.33;106864;1267;23436;-76
2022/06/08 08:44:32;;;;;;;6.50;1.80;;;;;;;22.01;68.54;99836.86;106981;1267;24267;-76
2022/06/08 08:47:13;;;;;;;4.20;1.70;;;;;;;22.15;68.54;99840.05;106891;1267;25567;-76
2022/06/08 08:49:53;;;;;;;5.20;1.30;;;;;;;22.26;67.82;99835.95;107501;1267;25771;-76
2022/06/08 08:52:38;;;;;;;8.10;1.20;;;;;;;22.35;67.25;99837.80;106911;1267;22665;-76
2022/06/08 08:55:33;;;;;;;5.00;1.20;;;;;;;22.44;65.96;99837.79;106774;1267;22927;-76
2022/06/08 08:58:11;;;;;;;4.90;1.40;;;;;;;22.47;65.20;99835.17;106983;1267;22549;-77
2022/06/08 09:00:48;;;;;;;4.10;1.30;;;;;;;22.51;66.10;99831.33;106888;1267;22541;-76
2022/06/08 09:03:28;;;;;;;3.40;1.20;;;;;;;22.61;65.69;99829.52;106917;1267;22652;-76
2022/06/08 09:06:01;;;;;;;;;;;;;;;22.72;64.90;99829.21;107042;1267;22503;-76
2022/06/08 09:08:32;;;;;;;2.70;0.90;;;;;;;22.77;63.37;99825.70;106890;1267;26491;-77
2022/06/08 09:11:04;;;;;;;4.10;1.00;;;;;;;22.78;62.69;99827.12;106893;1267;22647;-76
2022/06/08 09:13:44;;;;;;;2.90;1.00;;;;;;;22.82;62.16;99825.23;106874;1267;22557;-77
2022/06/08 09:16:28;;;;;;;5.90;1.50;;;;;;;22.77;61.34;99826.20;106965;1267;22560;-76
2022/06/08 09:18:59;;;;;;;4.60;1.00;;;;;;;22.75;61.63;99827.80;106830;1267;27218;-76
2022/06/08 09:21:35;;;;;;;4.80;1.10;;;;;;;22.79;61.39;99825.52;106944;1267;22472;-76
2022/06/08 09:24:23;;;;;;;3.50;1.10;;;;;;;22.82;60.51;99826.73;106916;1267;24190;-77
2022/06/08 09:27:12;;;;;;;5.40;1.20;;;;;;;22.80;60.44;99825.16;106844;1267;25310;-76
2022/06/08 09:29:54;;;;;;;5.10;1.10;;;;;;;22.82;58.89;99827.89;106931;1267;23489;-76
2022/06/08 09:32:34;;;;;;;3.20;1.00;;;;;;;22.77;59.28;99823.89;106937;1267;22542;-77
2022/06/08 09:35:17;;;;;;;4.50;1.00;;;;;;;22.78;58.30;99827.67;106940;1267;22663;-77
2022/06/08 09:37:50;;;;;;;4.50;0.80;;;;;;;22.77;58.19;99824.75;106865;1267;22534;-76
2022/06/08 09:40:40;;;;;;;3.90;1.00;;;;;;;22.78;58.57;99826.38;106837;1267;22538;-77
2022/06/08 09:43:41;;;;;;;3.10;1.00;;;;;;;22.87;58.49;99822.91;106815;1267;26108;-77
2022/06/08 09:46:21;;;;;;;2.90;1.00;;;;;;;22.96;58.22;99820.20;106954;1267;22521;-76
2022/06/08 09:52:06;;;;;;;3.30;1.00;;;;;;;23.04;57.96;99811.64;106879;1267;23349;-77
2022/06/08 09:54:51;;;;;;;4.10;1.00;;;;;;;23.06;57.92;99812.58;106914;1267;22541;-76
2022/06/08 09:57:40;;;;;;;3.40;1.00;;;;;;;23.13;57.51;99806.55;106919;1267;22557;-75
2022/06/08 10:00:22;;;;;;;2.20;0.70;;;;;;;23.18;56.50;99798.70;106811;1267;25303;-77
2022/06/08 10:03:10;;;;;;;5.00;0.90;;;;;;;23.22;55.08;99799.44;106997;1267;22754;-76
2022/06/08 10:05:50;;;;;;;4.40;0.80;;;;;;;23.15;55.42;99802.98;106920;1267;25255;-76
2022/06/08 10:08:25;;;;;;;4.50;0.70;;;;;;;23.20;56.13;99801.53;106844;1267;25248;-76
2022/06/08 10:11:04;;;;;;;5.00;1.00;;;;;;;23.28;55.30;99797.16;106870;1267;24314;-77
2022/06/08 10:13:41;;;;;;;8.30;1.20;;;;;;;23.34;54.53;99793.13;106890;1267;22541;-77
2022/06/08 10:16:18;;;;;;;4.20;0.70;;;;;;;23.35;54.19;99793.21;106860;1267;22573;-77
2022/06/08 10:18:55;;;;;;;4.20;1.10;;;;;;;23.31;53.92;99794.30;106915;1267;24275;-76
2022/06/08 10:21:32;;;;;;;4.30;0.80;;;;;;;23.28;53.87;99789.33;107096;1265;25376;-77
2022/06/08 10:24:13;;;;;;;3.90;0.80;;;;;;;23.30;53.41;99784.55;106881;1267;24239;-76
2022/06/08 10:26:48;;;;;;;7.30;0.80;;;;;;;23.32;53.47;99781.13;106936;1267;25333;-77
2022/06/08 10:29:25;;;;;;;5.50;1.00;;;;;;;23.39;53.82;99784.63;106856;1267;24277;-76
2022/06/08 10:32:03;;;;;;;3.80;0.80;;;;;;;23.45;52.93;99782.55;106872;1267;25361;-77
2022/06/08 10:34:36;;;;;;;3.50;0.90;;;;;;;23.45;52.55;99780.52;106972;1267;23031;-76
2022/06/08 10:37:15;;;;;;;4.50;0.90;;;;;;;23.47;53.34;99779.98;106915;1267;24459;-76
2022/06/08 10:39:48;;;;;;;3.20;0.90;;;;;;;23.54;52.58;99774.68;106935;1267;22667;-76
2022/06/08 10:42:46;;;;;;;5.10;0.80;;;;;;;23.56;51.72;99775.70;106977;1268;22547;-76
2022/06/08 10:45:44;;;;;;;5.60;1.30;;;;;;;23.54;51.76;99768.23;106928;1267;24234;-75
2022/06/08 10:48:35;;;;;;;2.90;1.20;;;;;;;23.54;51.91;99770.93;106965;1267;25542;-76
2022/06/08 10:51:41;;;;;;;3.70;0.70;;;;;;;23.58;52.13;99772.30;106966;1267;22537;-75
2022/06/08 10:54:55;;;;;;;3.90;0.80;;;;;;;23.63;52.19;99768.65;106776;1267;23063;-76
2022/06/08 10:57:50;;;;;;;5.20;1.20;;;;;;;23.68;52.21;99770.21;106321;1273;22570;-76
2022/06/08 11:00:51;;;;;;;2.80;1.00;;;;;;;23.70;52.13;99771.83;106449;1273;22750;-77
2022/06/08 11:03:47;;;;;;;2.50;0.70;;;;;;;23.71;51.84;99765.90;106337;1273;22694;-76
2022/06/08 11:06:48;;;;;;;4.00;1.10;;;;;;;23.73;51.51;99761.48;106478;1273;24494;-75
2022/06/08 11:09:43;;;;;;;5.20;1.30;;;;;;;23.72;51.21;99762.02;106365;1273;23482;-76
2022/06/08 11:12:30;;;;;;;3.90;0.90;;;;;;;23.70;51.48;99760.70;106295;1273;22563;-76
2022/06/08 11:15:10;;;;;;;4.40;1.20;;;;;;;23.76;51.36;99759.44;106358;1273;25629;-75
2022/06/08 11:17:52;;;;;;;5.70;1.10;;;;;;;23.71;51.23;99754.89;106316;1273;22532;-75
2022/06/08 11:20:29;;;;;;;5.50;1.20;;;;;;;23.71;51.57;99752.90;106329;1273;23071;-76
2022/06/08 11:23:04;;;;;;;4.10;1.10;;;;;;;23.77;52.06;99752.73;106447;1273;22560;-76
2022/06/08 11:25:49;;;;;;;7.10;1.70;;;;;;;23.89;52.23;99749.44;106415;1273;25166;-75
2022/06/08 11:28:39;;;;;;;3.60;1.30;;;;;;;24.04;52.73;99756.16;106298;1273;22547;-76
2022/06/08 11:31:33;;;;;;;3.70;1.10;;;;;;;24.14;52.75;99755.33;106271;1273;25318;-76
2022/06/08 11:34:27;;;;;;;5.50;1.10;;;;;;;24.23;52.51;99753.85;106235;1270;23221;-76
2022/06/08 11:37:13;;;;;;;3.90;1.20;;;;;;;24.32;52.79;99751.30;106868;1267;22538;-76
2022/06/08 11:39:52;;;;;;;6.00;1.40;;;;;;;24.41;52.49;99747.35;106915;1267;26520;-77
2022/06/08 11:42:29;;;;;;;4.50;1.10;;;;;;;24.48;52.08;99748.30;106873;1267;24242;-76
2022/06/08 11:45:20;;;;;;;3.30;1.20;;;;;;;24.54;52.66;99748.11;107017;1267;24001;-76
2022/06/08 11:47:58;;;;;;;4.90;1.40;;;;;;;24.56;51.73;99740.45;106924;1267;25245;-76
2022/06/08 11:50:42;;;;;;;3.80;1.10;;;;;;;24.48;52.16;99745.02;106909;1267;25438;-77
2022/06/08 11:53:19;;;;;;;3.80;1.40;;;;;;;24.53;52.76;99745.65;106895;1267;22542;-76
2022/06/08 11:55:59;;;;;;;7.40;1.30;;;;;;;24.59;52.39;99743.86;107000;1267;24260;-76
2022/06/08 11:58:34;;;;;;;4.10;1.40;;;;;;;24.56;51.99;99746.19;106942;1267;25296;-76
2022/06/08 12:01:11;;;;;;;7.80;1.60;;;;;;;24.52;52.47;99747.41;106867;1267;22547;-75
2022/06/08 12:03:46;;;;;;;3.90;1.30;;;;;;;24.49;51.93;99742.88;106853;1268;25245;-76
2022/06/08 12:06:24;;;;;;;6.40;1.40;;;;;;;24.48;52.13;99743.50;106961;1267;22520;-76
2022/06/08 12:09:00;;;;;;;8.60;1.40;;;;;;;24.44;51.52;99744.20;107006;1267;25242;-76